sensor_id;sensor_type;location;lat;lon;timestamp;P1;durP1;ratioP1;P2;durP2;ratioP2
10761;SDS011;5433;50.862;4.320;2023-08-31T00:02:20;5.50;;;2.72;;
10761;SDS011;5433;50.862;4.320;2023-08-31T00:04:46;2.70;;;2.40;;
10761;SDS011;5433;50.862;4.320;2023-08-31T00:07:12;2.70;;;2.50;;
10761;SDS011;5433;50.862;4.320;2023-08-31T00:09:38;3.50;;;2.83;;
10761;SDS011;5433;50.862;4.320;2023-08-31T00:12:04;5.18;;;3.13;;
10761;SDS011;5433;50.862;4.320;2023-08-31T00:14:30;4.30;;;3.17;;
10761;SDS011;5433;50.862;4.320;2023-08-31T00:16:57;3.65;;;3.08;;
10761;SDS011;5433;50.862;4.320;2023-08-31T00:19:23;4.78;;;3.13;;
10761;SDS011;5433;50.862;4.320;2023-08-31T00:21:49;4.55;;;3.40;;
10761;SDS011;5433;50.862;4.320;2023-08-31T00:24:15;3.53;;;3.00;;
10761;SDS011;5433;50.862;4.320;2023-08-31T00:26:41;4.47;;;2.97;;
10761;SDS011;5433;50.862;4.320;2023-08-31T00:29:11;4.55;;;3.17;;
10761;SDS011;5433;50.862;4.320;2023-08-31T00:31:39;3.58;;;3.28;;
10761;SDS011;5433;50.862;4.320;2023-08-31T00:34:07;4.30;;;3.50;;
10761;SDS011;5433;50.862;4.320;2023-08-31T00:36:35;3.75;;;3.25;;
10761;SDS011;5433;50.862;4.320;2023-08-31T00:39:03;3.92;;;3.22;;
10761;SDS011;5433;50.862;4.320;2023-08-31T00:41:36;4.28;;;3.22;;
10761;SDS011;5433;50.862;4.320;2023-08-31T00:44:02;3.53;;;3.17;;
10761;SDS011;5433;50.862;4.320;2023-08-31T00:46:30;3.97;;;3.47;;
10761;SDS011;5433;50.862;4.320;2023-08-31T00:48:56;4.88;;;3.40;;
10761;SDS011;5433;50.862;4.320;2023-08-31T00:51:23;3.90;;;3.45;;
10761;SDS011;5433;50.862;4.320;2023-08-31T00:53:50;6.13;;;3.67;;
10761;SDS011;5433;50.862;4.320;2023-08-31T00:56:18;5.20;;;3.25;;
10761;SDS011;5433;50.862;4.320;2023-08-31T00:58:44;4.28;;;3.60;;
10761;SDS011;5433;50.862;4.320;2023-08-31T01:01:14;4.65;;;3.58;;
10761;SDS011;5433;50.862;4.320;2023-08-31T01:03:50;4.68;;;3.65;;
10761;SDS011;5433;50.862;4.320;2023-08-31T01:06:41;5.00;;;3.50;;
10761;SDS011;5433;50.862;4.320;2023-08-31T01:09:08;4.25;;;3.85;;
10761;SDS011;5433;50.862;4.320;2023-08-31T01:11:49;5.10;;;3.70;;
10761;SDS011;5433;50.862;4.320;2023-08-31T01:14:19;6.45;;;3.58;;
10761;SDS011;5433;50.862;4.320;2023-08-31T01:16:49;4.82;;;3.30;;
10761;SDS011;5433;50.862;4.320;2023-08-31T01:19:30;5.20;;;3.95;;
10761;SDS011;5433;50.862;4.320;2023-08-31T01:21:57;5.85;;;3.90;;
10761;SDS011;5433;50.862;4.320;2023-08-31T01:24:26;4.75;;;4.00;;
10761;SDS011;5433;50.862;4.320;2023-08-31T01:26:52;4.93;;;3.80;;
10761;SDS011;5433;50.862;4.320;2023-08-31T01:29:18;5.22;;;4.03;;
10761;SDS011;5433;50.862;4.320;2023-08-31T01:31:44;6.28;;;3.65;;
10761;SDS011;5433;50.862;4.320;2023-08-31T01:34:10;4.72;;;3.92;;
10761;SDS011;5433;50.862;4.320;2023-08-31T01:36:39;6.32;;;3.88;;
10761;SDS011;5433;50.862;4.320;2023-08-31T01:39:12;4.63;;;3.92;;
10761;SDS011;5433;50.862;4.320;2023-08-31T01:41:40;7.00;;;3.95;;
10761;SDS011;5433;50.862;4.320;2023-08-31T01:44:08;4.88;;;4.07;;
10761;SDS011;5433;50.862;4.320;2023-08-31T01:46:37;6.97;;;4.20;;
10761;SDS011;5433;50.862;4.320;2023-08-31T01:49:04;6.55;;;4.25;;
10761;SDS011;5433;50.862;4.320;2023-08-31T01:51:30;7.32;;;4.50;;
10761;SDS011;5433;50.862;4.320;2023-08-31T01:53:56;5.80;;;4.30;;
10761;SDS011;5433;50.862;4.320;2023-08-31T01:56:24;6.93;;;4.72;;
10761;SDS011;5433;50.862;4.320;2023-08-31T01:58:50;5.50;;;4.00;;
10761;SDS011;5433;50.862;4.320;2023-08-31T02:01:15;8.13;;;4.97;;
10761;SDS011;5433;50.862;4.320;2023-08-31T02:03:42;7.57;;;4.90;;
10761;SDS011;5433;50.862;4.320;2023-08-31T02:06:09;8.45;;;5.00;;
10761;SDS011;5433;50.862;4.320;2023-08-31T02:08:34;6.88;;;5.03;;
10761;SDS011;5433;50.862;4.320;2023-08-31T02:11:00;8.75;;;4.82;;
10761;SDS011;5433;50.862;4.320;2023-08-31T02:13:27;8.60;;;4.78;;
10761;SDS011;5433;50.862;4.320;2023-08-31T02:15:53;6.22;;;4.65;;
10761;SDS011;5433;50.862;4.320;2023-08-31T02:18:19;6.72;;;4.50;;
10761;SDS011;5433;50.862;4.320;2023-08-31T02:20:45;5.72;;;4.50;;
10761;SDS011;5433;50.862;4.320;2023-08-31T02:23:11;6.22;;;4.63;;
10761;SDS011;5433;50.862;4.320;2023-08-31T02:25:37;6.38;;;4.50;;
10761;SDS011;5433;50.862;4.320;2023-08-31T02:28:03;7.38;;;4.35;;
10761;SDS011;5433;50.862;4.320;2023-08-31T02:30:29;6.10;;;4.38;;
10761;SDS011;5433;50.862;4.320;2023-08-31T02:32:55;6.80;;;4.18;;
10761;SDS011;5433;50.862;4.320;2023-08-31T02:35:22;8.45;;;4.75;;
10761;SDS011;5433;50.862;4.320;2023-08-31T02:37:48;7.88;;;3.88;;
10761;SDS011;5433;50.862;4.320;2023-08-31T02:40:14;5.57;;;4.20;;
10761;SDS011;5433;50.862;4.320;2023-08-31T02:42:41;5.82;;;4.00;;
10761;SDS011;5433;50.862;4.320;2023-08-31T02:45:07;6.00;;;4.70;;
10761;SDS011;5433;50.862;4.320;2023-08-31T02:47:33;7.47;;;4.00;;
10761;SDS011;5433;50.862;4.320;2023-08-31T02:49:59;6.88;;;4.05;;
10761;SDS011;5433;50.862;4.320;2023-08-31T02:52:25;5.07;;;4.43;;
10761;SDS011;5433;50.862;4.320;2023-08-31T02:54:51;5.63;;;4.07;;
10761;SDS011;5433;50.862;4.320;2023-08-31T02:57:17;4.90;;;4.07;;
10761;SDS011;5433;50.862;4.320;2023-08-31T02:59:44;7.07;;;3.80;;
10761;SDS011;5433;50.862;4.320;2023-08-31T03:02:11;4.97;;;3.88;;
10761;SDS011;5433;50.862;4.320;2023-08-31T03:04:37;5.78;;;3.95;;
10761;SDS011;5433;50.862;4.320;2023-08-31T03:07:04;4.63;;;3.70;;
10761;SDS011;5433;50.862;4.320;2023-08-31T03:09:30;5.57;;;4.05;;
10761;SDS011;5433;50.862;4.320;2023-08-31T03:11:56;5.22;;;4.10;;
10761;SDS011;5433;50.862;4.320;2023-08-31T03:14:22;5.68;;;3.95;;
10761;SDS011;5433;50.862;4.320;2023-08-31T03:16:48;6.28;;;4.15;;
10761;SDS011;5433;50.862;4.320;2023-08-31T03:22:18;6.45;;;3.83;;
10761;SDS011;5433;50.862;4.320;2023-08-31T03:24:44;6.30;;;3.88;;
10761;SDS011;5433;50.862;4.320;2023-08-31T03:27:10;6.65;;;3.80;;
10761;SDS011;5433;50.862;4.320;2023-08-31T03:29:36;5.35;;;4.07;;
10761;SDS011;5433;50.862;4.320;2023-08-31T03:32:02;5.68;;;4.20;;
10761;SDS011;5433;50.862;4.320;2023-08-31T03:34:29;5.50;;;3.95;;
10761;SDS011;5433;50.862;4.320;2023-08-31T03:36:55;4.72;;;3.60;;
10761;SDS011;5433;50.862;4.320;2023-08-31T03:39:22;6.55;;;3.80;;
10761;SDS011;5433;50.862;4.320;2023-08-31T03:41:48;8.05;;;3.83;;
10761;SDS011;5433;50.862;4.320;2023-08-31T03:44:14;4.70;;;3.72;;
10761;SDS011;5433;50.862;4.320;2023-08-31T03:46:40;5.50;;;3.63;;
10761;SDS011;5433;50.862;4.320;2023-08-31T03:49:06;5.85;;;3.63;;
10761;SDS011;5433;50.862;4.320;2023-08-31T03:51:32;5.22;;;3.60;;
10761;SDS011;5433;50.862;4.320;2023-08-31T03:53:58;5.20;;;3.72;;
10761;SDS011;5433;50.862;4.320;2023-08-31T03:56:25;5.43;;;3.47;;
10761;SDS011;5433;50.862;4.320;2023-08-31T03:58:51;6.10;;;3.72;;
10761;SDS011;5433;50.862;4.320;2023-08-31T04:01:17;5.25;;;3.63;;
10761;SDS011;5433;50.862;4.320;2023-08-31T04:03:43;7.00;;;4.10;;
10761;SDS011;5433;50.862;4.320;2023-08-31T04:06:09;6.03;;;3.65;;
10761;SDS011;5433;50.862;4.320;2023-08-31T04:08:35;7.43;;;3.92;;
10761;SDS011;5433;50.862;4.320;2023-08-31T04:11:01;4.95;;;3.53;;
10761;SDS011;5433;50.862;4.320;2023-08-31T04:13:28;6.15;;;3.95;;
10761;SDS011;5433;50.862;4.320;2023-08-31T04:15:54;6.00;;;3.97;;
10761;SDS011;5433;50.862;4.320;2023-08-31T04:18:20;5.38;;;4.03;;
10761;SDS011;5433;50.862;4.320;2023-08-31T04:20:48;6.90;;;3.80;;
10761;SDS011;5433;50.862;4.320;2023-08-31T04:23:15;4.20;;;3.63;;
10761;SDS011;5433;50.862;4.320;2023-08-31T04:25:41;6.13;;;4.00;;
10761;SDS011;5433;50.862;4.320;2023-08-31T04:28:07;7.00;;;4.40;;
10761;SDS011;5433;50.862;4.320;2023-08-31T04:30:33;6.40;;;4.45;;
10761;SDS011;5433;50.862;4.320;2023-08-31T04:32:59;6.68;;;4.28;;
10761;SDS011;5433;50.862;4.320;2023-08-31T04:35:25;6.60;;;4.63;;
10761;SDS011;5433;50.862;4.320;2023-08-31T04:37:52;6.18;;;4.25;;
10761;SDS011;5433;50.862;4.320;2023-08-31T04:40:18;7.68;;;4.80;;
10761;SDS011;5433;50.862;4.320;2023-08-31T04:42:44;7.82;;;4.55;;
10761;SDS011;5433;50.862;4.320;2023-08-31T04:45:10;6.22;;;4.68;;
10761;SDS011;5433;50.862;4.320;2023-08-31T04:47:37;4.85;;;4.35;;
10761;SDS011;5433;50.862;4.320;2023-08-31T04:50:03;6.28;;;4.80;;
10761;SDS011;5433;50.862;4.320;2023-08-31T04:52:31;4.53;;;4.13;;
10761;SDS011;5433;50.862;4.320;2023-08-31T04:54:57;7.20;;;4.50;;
10761;SDS011;5433;50.862;4.320;2023-08-31T04:57:23;7.80;;;4.82;;
10761;SDS011;5433;50.862;4.320;2023-08-31T04:59:51;5.07;;;4.55;;
10761;SDS011;5433;50.862;4.320;2023-08-31T05:02:16;6.25;;;4.95;;
10761;SDS011;5433;50.862;4.320;2023-08-31T05:04:44;5.97;;;5.28;;
10761;SDS011;5433;50.862;4.320;2023-08-31T05:07:10;6.10;;;4.97;;
10761;SDS011;5433;50.862;4.320;2023-08-31T05:09:36;7.40;;;4.90;;
10761;SDS011;5433;50.862;4.320;2023-08-31T05:12:02;6.97;;;4.45;;
10761;SDS011;5433;50.862;4.320;2023-08-31T05:14:28;6.82;;;4.53;;
10761;SDS011;5433;50.862;4.320;2023-08-31T05:16:55;5.70;;;4.43;;
10761;SDS011;5433;50.862;4.320;2023-08-31T05:19:21;7.50;;;4.70;;
10761;SDS011;5433;50.862;4.320;2023-08-31T05:21:47;6.63;;;4.80;;
10761;SDS011;5433;50.862;4.320;2023-08-31T05:24:13;8.00;;;5.05;;
10761;SDS011;5433;50.862;4.320;2023-08-31T05:26:39;5.47;;;4.80;;
10761;SDS011;5433;50.862;4.320;2023-08-31T05:29:05;8.43;;;5.07;;
10761;SDS011;5433;50.862;4.320;2023-08-31T05:31:31;6.03;;;4.60;;
10761;SDS011;5433;50.862;4.320;2023-08-31T05:33:58;6.40;;;4.68;;
10761;SDS011;5433;50.862;4.320;2023-08-31T05:36:24;6.63;;;4.68;;
10761;SDS011;5433;50.862;4.320;2023-08-31T05:38:53;6.63;;;4.68;;
10761;SDS011;5433;50.862;4.320;2023-08-31T05:41:19;7.32;;;4.90;;
10761;SDS011;5433;50.862;4.320;2023-08-31T05:43:46;7.75;;;4.53;;
10761;SDS011;5433;50.862;4.320;2023-08-31T05:46:12;5.88;;;4.45;;
10761;SDS011;5433;50.862;4.320;2023-08-31T05:48:38;5.88;;;4.32;;
10761;SDS011;5433;50.862;4.320;2023-08-31T05:51:04;7.35;;;4.45;;
10761;SDS011;5433;50.862;4.320;2023-08-31T05:53:30;7.55;;;4.57;;
10761;SDS011;5433;50.862;4.320;2023-08-31T05:55:56;7.65;;;4.50;;
10761;SDS011;5433;50.862;4.320;2023-08-31T05:58:32;8.25;;;4.40;;
10761;SDS011;5433;50.862;4.320;2023-08-31T06:00:58;8.80;;;4.75;;
10761;SDS011;5433;50.862;4.320;2023-08-31T06:03:24;7.65;;;4.80;;
10761;SDS011;5433;50.862;4.320;2023-08-31T06:05:50;7.75;;;4.75;;
10761;SDS011;5433;50.862;4.320;2023-08-31T06:08:16;9.02;;;4.65;;
10761;SDS011;5433;50.862;4.320;2023-08-31T06:10:42;8.73;;;4.60;;
10761;SDS011;5433;50.862;4.320;2023-08-31T06:13:08;8.02;;;4.47;;
10761;SDS011;5433;50.862;4.320;2023-08-31T06:15:34;10.70;;;4.32;;
10761;SDS011;5433;50.862;4.320;2023-08-31T06:18:00;8.73;;;4.47;;
10761;SDS011;5433;50.862;4.320;2023-08-31T06:20:27;10.35;;;4.43;;
10761;SDS011;5433;50.862;4.320;2023-08-31T06:22:53;8.30;;;4.20;;
10761;SDS011;5433;50.862;4.320;2023-08-31T06:25:19;10.50;;;4.43;;
10761;SDS011;5433;50.862;4.320;2023-08-31T06:27:47;9.10;;;4.30;;
10761;SDS011;5433;50.862;4.320;2023-08-31T06:30:13;9.20;;;4.00;;
10761;SDS011;5433;50.862;4.320;2023-08-31T06:32:43;11.63;;;3.95;;
10761;SDS011;5433;50.862;4.320;2023-08-31T06:35:09;11.32;;;3.95;;
10761;SDS011;5433;50.862;4.320;2023-08-31T06:37:36;8.95;;;3.80;;
10761;SDS011;5433;50.862;4.320;2023-08-31T06:40:02;10.00;;;4.10;;
10761;SDS011;5433;50.862;4.320;2023-08-31T06:42:28;9.73;;;4.03;;
10761;SDS011;5433;50.862;4.320;2023-08-31T06:44:54;8.98;;;3.75;;
10761;SDS011;5433;50.862;4.320;2023-08-31T06:47:22;9.93;;;4.25;;
10761;SDS011;5433;50.862;4.320;2023-08-31T06:49:49;9.73;;;4.20;;
10761;SDS011;5433;50.862;4.320;2023-08-31T06:52:15;10.60;;;4.10;;
10761;SDS011;5433;50.862;4.320;2023-08-31T06:57:14;16.35;;;4.38;;
10761;SDS011;5433;50.862;4.320;2023-08-31T06:59:40;8.98;;;3.83;;
10761;SDS011;5433;50.862;4.320;2023-08-31T07:02:06;7.57;;;4.28;;
10761;SDS011;5433;50.862;4.320;2023-08-31T07:04:32;13.05;;;4.47;;
10761;SDS011;5433;50.862;4.320;2023-08-31T07:06:58;9.45;;;4.40;;
10761;SDS011;5433;50.862;4.320;2023-08-31T07:09:24;8.88;;;4.15;;
10761;SDS011;5433;50.862;4.320;2023-08-31T07:11:52;9.85;;;4.50;;
10761;SDS011;5433;50.862;4.320;2023-08-31T07:14:17;9.73;;;3.90;;
10761;SDS011;5433;50.862;4.320;2023-08-31T07:16:43;10.35;;;4.05;;
10761;SDS011;5433;50.862;4.320;2023-08-31T07:19:09;9.77;;;4.43;;
10761;SDS011;5433;50.862;4.320;2023-08-31T07:21:35;10.40;;;4.15;;
10761;SDS011;5433;50.862;4.320;2023-08-31T07:24:01;12.05;;;4.07;;
10761;SDS011;5433;50.862;4.320;2023-08-31T07:26:27;11.65;;;3.83;;
10761;SDS011;5433;50.862;4.320;2023-08-31T07:28:54;9.60;;;4.00;;
10761;SDS011;5433;50.862;4.320;2023-08-31T07:31:20;10.65;;;4.30;;
10761;SDS011;5433;50.862;4.320;2023-08-31T07:33:46;8.20;;;4.10;;
10761;SDS011;5433;50.862;4.320;2023-08-31T07:36:13;14.75;;;4.20;;
10761;SDS011;5433;50.862;4.320;2023-08-31T07:38:40;10.95;;;3.95;;
10761;SDS011;5433;50.862;4.320;2023-08-31T07:41:06;9.07;;;4.13;;
10761;SDS011;5433;50.862;4.320;2023-08-31T07:46:36;9.10;;;4.10;;
10761;SDS011;5433;50.862;4.320;2023-08-31T07:49:03;13.38;;;4.40;;
10761;SDS011;5433;50.862;4.320;2023-08-31T07:51:29;8.57;;;3.95;;
10761;SDS011;5433;50.862;4.320;2023-08-31T07:53:59;11.93;;;4.10;;
10761;SDS011;5433;50.862;4.320;2023-08-31T07:56:26;9.02;;;3.85;;
10761;SDS011;5433;50.862;4.320;2023-08-31T07:58:52;9.93;;;4.32;;
10761;SDS011;5433;50.862;4.320;2023-08-31T08:01:19;8.38;;;4.50;;
10761;SDS011;5433;50.862;4.320;2023-08-31T08:03:45;7.65;;;4.55;;
10761;SDS011;5433;50.862;4.320;2023-08-31T08:06:12;9.80;;;4.38;;
10761;SDS011;5433;50.862;4.320;2023-08-31T08:08:39;10.05;;;4.32;;
10761;SDS011;5433;50.862;4.320;2023-08-31T08:11:05;7.07;;;3.88;;
10761;SDS011;5433;50.862;4.320;2023-08-31T08:13:32;13.70;;;4.10;;
10761;SDS011;5433;50.862;4.320;2023-08-31T08:15:58;10.38;;;4.45;;
10761;SDS011;5433;50.862;4.320;2023-08-31T08:18:24;9.05;;;4.07;;
10761;SDS011;5433;50.862;4.320;2023-08-31T08:20:50;7.35;;;3.85;;
10761;SDS011;5433;50.862;4.320;2023-08-31T08:23:18;9.70;;;4.10;;
10761;SDS011;5433;50.862;4.320;2023-08-31T08:25:44;9.05;;;4.13;;
10761;SDS011;5433;50.862;4.320;2023-08-31T08:28:10;6.95;;;3.65;;
10761;SDS011;5433;50.862;4.320;2023-08-31T08:30:36;9.52;;;3.88;;
10761;SDS011;5433;50.862;4.320;2023-08-31T08:33:02;9.20;;;3.97;;
10761;SDS011;5433;50.862;4.320;2023-08-31T08:35:28;8.18;;;4.05;;
10761;SDS011;5433;50.862;4.320;2023-08-31T08:37:54;12.48;;;4.13;;
10761;SDS011;5433;50.862;4.320;2023-08-31T08:40:20;8.40;;;3.80;;
10761;SDS011;5433;50.862;4.320;2023-08-31T08:42:47;6.75;;;3.53;;
10761;SDS011;5433;50.862;4.320;2023-08-31T08:45:13;9.18;;;3.88;;
10761;SDS011;5433;50.862;4.320;2023-08-31T08:47:43;8.35;;;3.80;;
10761;SDS011;5433;50.862;4.320;2023-08-31T08:50:10;10.80;;;3.63;;
10761;SDS011;5433;50.862;4.320;2023-08-31T08:52:37;8.63;;;4.22;;
10761;SDS011;5433;50.862;4.320;2023-08-31T08:55:04;9.45;;;3.78;;
10761;SDS011;5433;50.862;4.320;2023-08-31T08:57:30;8.15;;;3.95;;
10761;SDS011;5433;50.862;4.320;2023-08-31T08:59:59;8.18;;;3.70;;
10761;SDS011;5433;50.862;4.320;2023-08-31T09:02:25;8.93;;;3.78;;
10761;SDS011;5433;50.862;4.320;2023-08-31T09:04:51;7.78;;;3.95;;
10761;SDS011;5433;50.862;4.320;2023-08-31T09:07:20;8.98;;;3.80;;
10761;SDS011;5433;50.862;4.320;2023-08-31T09:09:53;6.68;;;3.55;;
10761;SDS011;5433;50.862;4.320;2023-08-31T09:12:22;8.35;;;4.15;;
10761;SDS011;5433;50.862;4.320;2023-08-31T09:15:02;8.75;;;3.90;;
10761;SDS011;5433;50.862;4.320;2023-08-31T09:17:47;7.45;;;3.72;;
10761;SDS011;5433;50.862;4.320;2023-08-31T09:20:13;6.70;;;3.75;;
10761;SDS011;5433;50.862;4.320;2023-08-31T09:22:42;6.13;;;3.60;;
10761;SDS011;5433;50.862;4.320;2023-08-31T09:25:09;7.50;;;3.85;;
10761;SDS011;5433;50.862;4.320;2023-08-31T09:27:38;7.15;;;3.58;;
10761;SDS011;5433;50.862;4.320;2023-08-31T09:30:08;7.50;;;3.67;;
10761;SDS011;5433;50.862;4.320;2023-08-31T09:32:35;7.95;;;3.72;;
10761;SDS011;5433;50.862;4.320;2023-08-31T09:35:01;7.07;;;3.58;;
10761;SDS011;5433;50.862;4.320;2023-08-31T09:37:28;5.88;;;3.38;;
10761;SDS011;5433;50.862;4.320;2023-08-31T09:39:55;7.57;;;3.70;;
10761;SDS011;5433;50.862;4.320;2023-08-31T09:42:20;7.13;;;3.55;;
10761;SDS011;5433;50.862;4.320;2023-08-31T09:44:48;6.32;;;3.08;;
10761;SDS011;5433;50.862;4.320;2023-08-31T09:47:15;7.22;;;3.20;;
10761;SDS011;5433;50.862;4.320;2023-08-31T09:49:42;8.50;;;3.95;;
10761;SDS011;5433;50.862;4.320;2023-08-31T09:52:09;7.32;;;3.45;;
10761;SDS011;5433;50.862;4.320;2023-08-31T09:54:35;8.85;;;4.28;;
10761;SDS011;5433;50.862;4.320;2023-08-31T09:57:02;8.38;;;3.80;;
10761;SDS011;5433;50.862;4.320;2023-08-31T09:59:28;9.30;;;4.55;;
10761;SDS011;5433;50.862;4.320;2023-08-31T10:01:55;5.40;;;3.67;;
10761;SDS011;5433;50.862;4.320;2023-08-31T10:04:21;7.72;;;4.10;;
10761;SDS011;5433;50.862;4.320;2023-08-31T10:06:48;7.50;;;4.05;;
10761;SDS011;5433;50.862;4.320;2023-08-31T10:09:14;8.10;;;3.83;;
10761;SDS011;5433;50.862;4.320;2023-08-31T10:11:41;5.82;;;3.47;;
10761;SDS011;5433;50.862;4.320;2023-08-31T10:14:11;7.28;;;3.40;;
10761;SDS011;5433;50.862;4.320;2023-08-31T10:16:40;7.80;;;3.70;;
10761;SDS011;5433;50.862;4.320;2023-08-31T10:19:06;9.07;;;3.33;;
10761;SDS011;5433;50.862;4.320;2023-08-31T10:21:32;6.72;;;3.50;;
10761;SDS011;5433;50.862;4.320;2023-08-31T10:23:58;5.55;;;3.25;;
10761;SDS011;5433;50.862;4.320;2023-08-31T10:28:51;8.90;;;3.20;;
10761;SDS011;5433;50.862;4.320;2023-08-31T10:31:17;5.60;;;2.90;;
10761;SDS011;5433;50.862;4.320;2023-08-31T10:33:47;5.55;;;3.03;;
10761;SDS011;5433;50.862;4.320;2023-08-31T10:38:39;6.82;;;3.05;;
10761;SDS011;5433;50.862;4.320;2023-08-31T10:48:49;6.38;;;3.00;;
10761;SDS011;5433;50.862;4.320;2023-08-31T10:51:18;5.60;;;2.70;;
10761;SDS011;5433;50.862;4.320;2023-08-31T10:53:45;5.55;;;3.13;;
10761;SDS011;5433;50.862;4.320;2023-08-31T10:56:11;5.75;;;2.92;;
10761;SDS011;5433;50.862;4.320;2023-08-31T10:58:38;5.90;;;2.50;;
10761;SDS011;5433;50.862;4.320;2023-08-31T11:01:04;5.80;;;2.60;;
10761;SDS011;5433;50.862;4.320;2023-08-31T11:03:30;7.32;;;2.80;;
10761;SDS011;5433;50.862;4.320;2023-08-31T11:05:56;6.57;;;2.22;;
10761;SDS011;5433;50.862;4.320;2023-08-31T11:08:23;5.28;;;2.45;;
10761;SDS011;5433;50.862;4.320;2023-08-31T11:10:49;4.22;;;2.15;;
10761;SDS011;5433;50.862;4.320;2023-08-31T11:13:16;5.75;;;2.25;;
10761;SDS011;5433;50.862;4.320;2023-08-31T11:15:46;5.85;;;2.53;;
10761;SDS011;5433;50.862;4.320;2023-08-31T11:18:12;6.55;;;2.35;;
10761;SDS011;5433;50.862;4.320;2023-08-31T11:20:43;5.45;;;2.20;;
10761;SDS011;5433;50.862;4.320;2023-08-31T11:23:09;5.95;;;2.13;;
10761;SDS011;5433;50.862;4.320;2023-08-31T11:25:35;6.65;;;2.03;;
10761;SDS011;5433;50.862;4.320;2023-08-31T11:28:05;5.95;;;2.17;;
10761;SDS011;5433;50.862;4.320;2023-08-31T11:30:33;6.82;;;2.28;;
10761;SDS011;5433;50.862;4.320;2023-08-31T11:33:03;5.20;;;2.20;;
10761;SDS011;5433;50.862;4.320;2023-08-31T11:35:34;4.43;;;2.10;;
10761;SDS011;5433;50.862;4.320;2023-08-31T11:38:01;5.80;;;2.10;;
10761;SDS011;5433;50.862;4.320;2023-08-31T11:40:32;5.68;;;1.85;;
10761;SDS011;5433;50.862;4.320;2023-08-31T11:42:59;5.95;;;2.17;;
10761;SDS011;5433;50.862;4.320;2023-08-31T11:45:25;3.17;;;2.00;;
10761;SDS011;5433;50.862;4.320;2023-08-31T11:47:52;4.28;;;2.00;;
10761;SDS011;5433;50.862;4.320;2023-08-31T11:50:18;4.75;;;1.90;;
10761;SDS011;5433;50.862;4.320;2023-08-31T11:52:45;3.97;;;1.80;;
10761;SDS011;5433;50.862;4.320;2023-08-31T11:55:14;4.60;;;1.80;;
10761;SDS011;5433;50.862;4.320;2023-08-31T11:57:47;9.32;;;2.10;;
10761;SDS011;5433;50.862;4.320;2023-08-31T12:00:16;5.55;;;1.90;;
10761;SDS011;5433;50.862;4.320;2023-08-31T12:02:42;5.82;;;1.95;;
10761;SDS011;5433;50.862;4.320;2023-08-31T12:05:13;6.63;;;2.00;;
10761;SDS011;5433;50.862;4.320;2023-08-31T12:07:40;4.68;;;2.00;;
10761;SDS011;5433;50.862;4.320;2023-08-31T12:10:07;4.38;;;1.98;;
10761;SDS011;5433;50.862;4.320;2023-08-31T12:12:33;3.47;;;1.90;;
10761;SDS011;5433;50.862;4.320;2023-08-31T12:15:01;4.50;;;1.70;;
10761;SDS011;5433;50.862;4.320;2023-08-31T12:17:28;5.20;;;1.90;;
10761;SDS011;5433;50.862;4.320;2023-08-31T12:20:01;3.92;;;2.10;;
10761;SDS011;5433;50.862;4.320;2023-08-31T12:22:30;4.95;;;2.10;;
10761;SDS011;5433;50.862;4.320;2023-08-31T12:24:56;3.85;;;1.90;;
10761;SDS011;5433;50.862;4.320;2023-08-31T12:27:22;3.30;;;1.65;;
10761;SDS011;5433;50.862;4.320;2023-08-31T12:29:48;6.18;;;2.00;;
10761;SDS011;5433;50.862;4.320;2023-08-31T12:32:15;5.93;;;2.20;;
10761;SDS011;5433;50.862;4.320;2023-08-31T12:34:44;5.40;;;2.20;;
10761;SDS011;5433;50.862;4.320;2023-08-31T12:37:10;5.20;;;2.08;;
10761;SDS011;5433;50.862;4.320;2023-08-31T12:39:37;4.68;;;1.80;;
10761;SDS011;5433;50.862;4.320;2023-08-31T12:42:03;4.93;;;1.90;;
10761;SDS011;5433;50.862;4.320;2023-08-31T12:44:29;4.72;;;2.00;;
10761;SDS011;5433;50.862;4.320;2023-08-31T12:46:56;10.23;;;2.55;;
10761;SDS011;5433;50.862;4.320;2023-08-31T12:49:22;6.50;;;2.55;;
10761;SDS011;5433;50.862;4.320;2023-08-31T12:51:48;5.78;;;1.75;;
10761;SDS011;5433;50.862;4.320;2023-08-31T12:54:15;3.63;;;2.00;;
10761;SDS011;5433;50.862;4.320;2023-08-31T12:56:41;4.22;;;2.00;;
10761;SDS011;5433;50.862;4.320;2023-08-31T12:59:10;6.05;;;2.15;;
10761;SDS011;5433;50.862;4.320;2023-08-31T13:01:36;4.07;;;2.00;;
10761;SDS011;5433;50.862;4.320;2023-08-31T13:04:03;3.70;;;2.00;;
10761;SDS011;5433;50.862;4.320;2023-08-31T13:06:30;3.80;;;1.88;;
10761;SDS011;5433;50.862;4.320;2023-08-31T13:08:56;7.15;;;2.10;;
10761;SDS011;5433;50.862;4.320;2023-08-31T13:11:22;4.18;;;2.05;;
10761;SDS011;5433;50.862;4.320;2023-08-31T13:13:48;3.28;;;1.70;;
10761;SDS011;5433;50.862;4.320;2023-08-31T13:16:18;5.68;;;1.60;;
10761;SDS011;5433;50.862;4.320;2023-08-31T13:18:44;4.80;;;1.90;;
10761;SDS011;5433;50.862;4.320;2023-08-31T13:21:10;4.28;;;1.77;;
10761;SDS011;5433;50.862;4.320;2023-08-31T13:23:36;6.10;;;1.80;;
10761;SDS011;5433;50.862;4.320;2023-08-31T13:26:02;4.47;;;2.00;;
10761;SDS011;5433;50.862;4.320;2023-08-31T13:28:28;5.35;;;2.10;;
10761;SDS011;5433;50.862;4.320;2023-08-31T13:30:57;4.18;;;1.90;;
10761;SDS011;5433;50.862;4.320;2023-08-31T13:33:25;4.55;;;1.95;;
10761;SDS011;5433;50.862;4.320;2023-08-31T13:35:53;4.28;;;1.90;;
10761;SDS011;5433;50.862;4.320;2023-08-31T13:38:19;7.07;;;1.90;;
10761;SDS011;5433;50.862;4.320;2023-08-31T13:40:45;5.18;;;1.70;;
10761;SDS011;5433;50.862;4.320;2023-08-31T13:43:11;4.30;;;1.83;;
10761;SDS011;5433;50.862;4.320;2023-08-31T13:45:38;20.20;;;3.60;;
10761;SDS011;5433;50.862;4.320;2023-08-31T13:48:04;8.43;;;2.22;;
10761;SDS011;5433;50.862;4.320;2023-08-31T13:50:30;5.15;;;1.90;;
10761;SDS011;5433;50.862;4.320;2023-08-31T13:52:56;6.68;;;2.17;;
10761;SDS011;5433;50.862;4.320;2023-08-31T13:55:22;4.95;;;2.00;;
10761;SDS011;5433;50.862;4.320;2023-08-31T13:57:49;4.50;;;2.10;;
10761;SDS011;5433;50.862;4.320;2023-08-31T14:00:15;4.47;;;1.90;;
10761;SDS011;5433;50.862;4.320;2023-08-31T14:02:42;7.20;;;2.22;;
10761;SDS011;5433;50.862;4.320;2023-08-31T14:05:11;6.25;;;2.22;;
10761;SDS011;5433;50.862;4.320;2023-08-31T14:07:39;9.88;;;2.70;;
10761;SDS011;5433;50.862;4.320;2023-08-31T14:10:05;7.28;;;2.38;;
10761;SDS011;5433;50.862;4.320;2023-08-31T14:12:32;5.18;;;2.28;;
10761;SDS011;5433;50.862;4.320;2023-08-31T14:14:58;4.25;;;2.20;;
10761;SDS011;5433;50.862;4.320;2023-08-31T14:17:26;4.22;;;1.98;;
10761;SDS011;5433;50.862;4.320;2023-08-31T14:19:52;5.28;;;2.55;;
10761;SDS011;5433;50.862;4.320;2023-08-31T14:22:18;8.63;;;2.42;;
10761;SDS011;5433;50.862;4.320;2023-08-31T14:24:44;4.95;;;2.20;;
10761;SDS011;5433;50.862;4.320;2023-08-31T14:27:10;7.32;;;2.40;;
10761;SDS011;5433;50.862;4.320;2023-08-31T14:29:36;6.68;;;2.28;;
10761;SDS011;5433;50.862;4.320;2023-08-31T14:32:02;5.50;;;2.40;;
10761;SDS011;5433;50.862;4.320;2023-08-31T14:34:29;8.63;;;2.60;;
10761;SDS011;5433;50.862;4.320;2023-08-31T14:36:56;5.78;;;2.63;;
10761;SDS011;5433;50.862;4.320;2023-08-31T14:39:24;8.27;;;2.35;;
10761;SDS011;5433;50.862;4.320;2023-08-31T14:45:00;8.70;;;2.75;;
10761;SDS011;5433;50.862;4.320;2023-08-31T14:47:26;6.38;;;2.40;;
10761;SDS011;5433;50.862;4.320;2023-08-31T14:49:52;8.02;;;2.88;;
10761;SDS011;5433;50.862;4.320;2023-08-31T14:52:18;6.90;;;2.72;;
10761;SDS011;5433;50.862;4.320;2023-08-31T14:54:44;6.93;;;2.67;;
10761;SDS011;5433;50.862;4.320;2023-08-31T14:57:10;7.72;;;2.53;;
10761;SDS011;5433;50.862;4.320;2023-08-31T14:59:36;6.47;;;2.65;;
10761;SDS011;5433;50.862;4.320;2023-08-31T15:02:02;7.53;;;2.70;;
10761;SDS011;5433;50.862;4.320;2023-08-31T15:04:30;6.53;;;2.70;;
10761;SDS011;5433;50.862;4.320;2023-08-31T15:06:57;6.55;;;2.50;;
10761;SDS011;5433;50.862;4.320;2023-08-31T15:09:23;6.07;;;2.58;;
10761;SDS011;5433;50.862;4.320;2023-08-31T15:11:49;6.65;;;2.60;;
10761;SDS011;5433;50.862;4.320;2023-08-31T15:14:16;10.10;;;2.50;;
10761;SDS011;5433;50.862;4.320;2023-08-31T15:16:41;6.22;;;2.58;;
10761;SDS011;5433;50.862;4.320;2023-08-31T15:19:08;5.93;;;2.30;;
10761;SDS011;5433;50.862;4.320;2023-08-31T15:21:34;6.38;;;2.58;;
10761;SDS011;5433;50.862;4.320;2023-08-31T15:24:00;4.80;;;2.20;;